sensor_id;sensor_type;location;lat;lon;timestamp;P1;durP1;ratioP1;P2;durP2;ratioP2
70228;SDS011;57617;51.988;5.854;2023-02-24T00:01:40;19.27;;;3.10;;
70228;SDS011;57617;51.988;5.854;2023-02-24T00:04:10;13.37;;;2.60;;
70228;SDS011;57617;51.988;5.854;2023-02-24T00:06:38;15.80;;;3.23;;
70228;SDS011;57617;51.988;5.854;2023-02-24T00:09:06;16.77;;;3.03;;
70228;SDS011;57617;51.988;5.854;2023-02-24T00:11:43;14.07;;;2.73;;
70228;SDS011;57617;51.988;5.854;2023-02-24T00:14:16;11.43;;;2.33;;
70228;SDS011;57617;51.988;5.854;2023-02-24T00:16:42;15.10;;;2.50;;
70228;SDS011;57617;51.988;5.854;2023-02-24T00:19:09;9.67;;;2.67;;
70228;SDS011;57617;51.988;5.854;2023-02-24T00:21:37;14.93;;;2.60;;
70228;SDS011;57617;51.988;5.854;2023-02-24T00:24:03;11.70;;;2.30;;
70228;SDS011;57617;51.988;5.854;2023-02-24T00:26:29;13.70;;;2.83;;
70228;SDS011;57617;51.988;5.854;2023-02-24T00:28:55;17.73;;;3.20;;
70228;SDS011;57617;51.988;5.854;2023-02-24T00:31:24;17.70;;;2.70;;
70228;SDS011;57617;51.988;5.854;2023-02-24T00:33:49;12.57;;;2.97;;
70228;SDS011;57617;51.988;5.854;2023-02-24T00:36:16;19.80;;;3.33;;
70228;SDS011;57617;51.988;5.854;2023-02-24T00:38:48;16.10;;;3.17;;
70228;SDS011;57617;51.988;5.854;2023-02-24T00:41:20;14.37;;;2.90;;
70228;SDS011;57617;51.988;5.854;2023-02-24T00:43:53;10.20;;;2.77;;
70228;SDS011;57617;51.988;5.854;2023-02-24T00:46:21;17.77;;;2.90;;
70228;SDS011;57617;51.988;5.854;2023-02-24T00:48:50;17.10;;;3.30;;
70228;SDS011;57617;51.988;5.854;2023-02-24T00:51:19;18.20;;;3.03;;
70228;SDS011;57617;51.988;5.854;2023-02-24T00:53:54;20.63;;;3.20;;
70228;SDS011;57617;51.988;5.854;2023-02-24T00:56:21;14.20;;;3.60;;
70228;SDS011;57617;51.988;5.854;2023-02-24T00:58:48;16.43;;;3.53;;
70228;SDS011;57617;51.988;5.854;2023-02-24T01:01:15;21.83;;;3.57;;
70228;SDS011;57617;51.988;5.854;2023-02-24T01:03:43;16.87;;;3.23;;
70228;SDS011;57617;51.988;5.854;2023-02-24T01:06:10;13.87;;;3.40;;
70228;SDS011;57617;51.988;5.854;2023-02-24T01:08:36;16.17;;;3.40;;
70228;SDS011;57617;51.988;5.854;2023-02-24T01:11:04;20.60;;;3.47;;
70228;SDS011;57617;51.988;5.854;2023-02-24T01:13:48;23.03;;;3.50;;
70228;SDS011;57617;51.988;5.854;2023-02-24T01:16:14;17.87;;;3.67;;
70228;SDS011;57617;51.988;5.854;2023-02-24T01:18:42;23.30;;;3.90;;
70228;SDS011;57617;51.988;5.854;2023-02-24T01:21:08;21.33;;;4.07;;
70228;SDS011;57617;51.988;5.854;2023-02-24T01:23:34;15.03;;;3.40;;
70228;SDS011;57617;51.988;5.854;2023-02-24T01:25:59;12.13;;;3.80;;
70228;SDS011;57617;51.988;5.854;2023-02-24T01:28:27;27.13;;;3.90;;
70228;SDS011;57617;51.988;5.854;2023-02-24T01:30:52;20.80;;;4.23;;
70228;SDS011;57617;51.988;5.854;2023-02-24T01:33:19;15.90;;;3.33;;
70228;SDS011;57617;51.988;5.854;2023-02-24T01:35:45;17.10;;;3.83;;
70228;SDS011;57617;51.988;5.854;2023-02-24T01:38:10;13.47;;;3.70;;
70228;SDS011;57617;51.988;5.854;2023-02-24T01:40:36;23.10;;;3.47;;
70228;SDS011;57617;51.988;5.854;2023-02-24T01:43:02;15.20;;;3.63;;
70228;SDS011;57617;51.988;5.854;2023-02-24T01:45:33;15.10;;;3.50;;
70228;SDS011;57617;51.988;5.854;2023-02-24T01:48:01;13.17;;;3.13;;
70228;SDS011;57617;51.988;5.854;2023-02-24T01:50:30;12.13;;;3.73;;
70228;SDS011;57617;51.988;5.854;2023-02-24T01:53:00;19.10;;;3.73;;
70228;SDS011;57617;51.988;5.854;2023-02-24T01:55:33;13.93;;;3.50;;
70228;SDS011;57617;51.988;5.854;2023-02-24T01:58:07;10.83;;;3.10;;
70228;SDS011;57617;51.988;5.854;2023-02-24T02:00:38;13.00;;;3.13;;
70228;SDS011;57617;51.988;5.854;2023-02-24T02:03:19;11.23;;;3.37;;
70228;SDS011;57617;51.988;5.854;2023-02-24T02:05:48;14.77;;;3.27;;
70228;SDS011;57617;51.988;5.854;2023-02-24T02:08:16;20.30;;;3.47;;
70228;SDS011;57617;51.988;5.854;2023-02-24T02:10:43;15.43;;;3.00;;
70228;SDS011;57617;51.988;5.854;2023-02-24T02:13:09;12.30;;;3.27;;
70228;SDS011;57617;51.988;5.854;2023-02-24T02:15:40;15.20;;;3.30;;
70228;SDS011;57617;51.988;5.854;2023-02-24T02:20:54;16.80;;;3.17;;
70228;SDS011;57617;51.988;5.854;2023-02-24T02:26:21;19.57;;;3.30;;
70228;SDS011;57617;51.988;5.854;2023-02-24T02:32:14;12.60;;;3.00;;
70228;SDS011;57617;51.988;5.854;2023-02-24T02:35:00;15.10;;;3.30;;
70228;SDS011;57617;51.988;5.854;2023-02-24T02:40:30;12.57;;;3.03;;
70228;SDS011;57617;51.988;5.854;2023-02-24T02:43:06;13.23;;;3.20;;
70228;SDS011;57617;51.988;5.854;2023-02-24T02:45:58;13.37;;;3.10;;
70228;SDS011;57617;51.988;5.854;2023-02-24T02:51:20;16.27;;;2.93;;
70228;SDS011;57617;51.988;5.854;2023-02-24T02:53:52;14.43;;;2.53;;
70228;SDS011;57617;51.988;5.854;2023-02-24T02:56:20;17.63;;;2.33;;
70228;SDS011;57617;51.988;5.854;2023-02-24T02:58:54;9.97;;;2.53;;
70228;SDS011;57617;51.988;5.854;2023-02-24T03:01:23;11.67;;;2.33;;
70228;SDS011;57617;51.988;5.854;2023-02-24T03:03:55;15.73;;;2.57;;
70228;SDS011;57617;51.988;5.854;2023-02-24T03:06:26;14.37;;;2.27;;
70228;SDS011;57617;51.988;5.854;2023-02-24T03:09:18;11.37;;;2.20;;
70228;SDS011;57617;51.988;5.854;2023-02-24T03:11:49;7.20;;;2.00;;
70228;SDS011;57617;51.988;5.854;2023-02-24T03:14:21;12.23;;;2.20;;
70228;SDS011;57617;51.988;5.854;2023-02-24T03:16:48;12.70;;;2.50;;
70228;SDS011;57617;51.988;5.854;2023-02-24T03:19:18;9.70;;;2.20;;
70228;SDS011;57617;51.988;5.854;2023-02-24T03:21:50;11.53;;;2.53;;
70228;SDS011;57617;51.988;5.854;2023-02-24T03:24:26;11.13;;;2.27;;
70228;SDS011;57617;51.988;5.854;2023-02-24T03:26:54;11.23;;;2.00;;
70228;SDS011;57617;51.988;5.854;2023-02-24T03:29:38;9.20;;;2.50;;
70228;SDS011;57617;51.988;5.854;2023-02-24T03:34:54;9.67;;;2.37;;
70228;SDS011;57617;51.988;5.854;2023-02-24T03:37:24;8.80;;;2.00;;
70228;SDS011;57617;51.988;5.854;2023-02-24T03:39:52;9.23;;;2.30;;
70228;SDS011;57617;51.988;5.854;2023-02-24T03:42:21;18.30;;;2.33;;
70228;SDS011;57617;51.988;5.854;2023-02-24T03:44:47;11.27;;;2.40;;
70228;SDS011;57617;51.988;5.854;2023-02-24T03:47:13;10.90;;;2.53;;
70228;SDS011;57617;51.988;5.854;2023-02-24T03:49:40;12.83;;;2.30;;
70228;SDS011;57617;51.988;5.854;2023-02-24T03:52:21;15.57;;;2.57;;
70228;SDS011;57617;51.988;5.854;2023-02-24T04:00:37;12.60;;;2.40;;
70228;SDS011;57617;51.988;5.854;2023-02-24T04:03:19;16.53;;;3.10;;
70228;SDS011;57617;51.988;5.854;2023-02-24T04:05:53;12.93;;;2.90;;
70228;SDS011;57617;51.988;5.854;2023-02-24T04:08:45;18.83;;;2.20;;
70228;SDS011;57617;51.988;5.854;2023-02-24T04:11:21;16.20;;;2.70;;
70228;SDS011;57617;51.988;5.854;2023-02-24T04:14:00;7.53;;;2.30;;
70228;SDS011;57617;51.988;5.854;2023-02-24T04:16:35;12.57;;;2.60;;
70228;SDS011;57617;51.988;5.854;2023-02-24T04:19:07;9.87;;;3.47;;
70228;SDS011;57617;51.988;5.854;2023-02-24T04:21:37;15.63;;;2.53;;
70228;SDS011;57617;51.988;5.854;2023-02-24T04:24:07;9.27;;;2.60;;
70228;SDS011;57617;51.988;5.854;2023-02-24T04:26:39;15.33;;;2.60;;
70228;SDS011;57617;51.988;5.854;2023-02-24T04:29:08;11.97;;;2.10;;
70228;SDS011;57617;51.988;5.854;2023-02-24T04:31:41;17.10;;;2.90;;
70228;SDS011;57617;51.988;5.854;2023-02-24T04:34:09;10.30;;;2.30;;
70228;SDS011;57617;51.988;5.854;2023-02-24T04:36:36;16.90;;;2.30;;
70228;SDS011;57617;51.988;5.854;2023-02-24T04:39:02;13.83;;;2.40;;
70228;SDS011;57617;51.988;5.854;2023-02-24T04:41:28;11.13;;;2.20;;
70228;SDS011;57617;51.988;5.854;2023-02-24T04:43:54;11.53;;;2.50;;
70228;SDS011;57617;51.988;5.854;2023-02-24T04:46:19;15.03;;;2.47;;
70228;SDS011;57617;51.988;5.854;2023-02-24T04:48:45;13.83;;;2.50;;
70228;SDS011;57617;51.988;5.854;2023-02-24T04:51:10;12.13;;;2.43;;
70228;SDS011;57617;51.988;5.854;2023-02-24T04:53:37;15.03;;;2.50;;
70228;SDS011;57617;51.988;5.854;2023-02-24T04:56:03;13.57;;;2.83;;
70228;SDS011;57617;51.988;5.854;2023-02-24T04:58:33;12.13;;;2.30;;
70228;SDS011;57617;51.988;5.854;2023-02-24T05:01:00;14.27;;;2.17;;
70228;SDS011;57617;51.988;5.854;2023-02-24T05:03:32;14.47;;;2.37;;
70228;SDS011;57617;51.988;5.854;2023-02-24T05:05:59;13.03;;;2.20;;
70228;SDS011;57617;51.988;5.854;2023-02-24T05:08:25;12.17;;;2.60;;
70228;SDS011;57617;51.988;5.854;2023-02-24T05:10:52;10.63;;;2.38;;
70228;SDS011;57617;51.988;5.854;2023-02-24T05:13:19;12.30;;;2.37;;
70228;SDS011;57617;51.988;5.854;2023-02-24T05:15:45;12.20;;;2.60;;
70228;SDS011;57617;51.988;5.854;2023-02-24T05:18:12;13.17;;;3.10;;
70228;SDS011;57617;51.988;5.854;2023-02-24T05:20:44;14.47;;;3.10;;
70228;SDS011;57617;51.988;5.854;2023-02-24T05:23:31;15.13;;;3.50;;
70228;SDS011;57617;51.988;5.854;2023-02-24T05:25:58;21.07;;;3.37;;
70228;SDS011;57617;51.988;5.854;2023-02-24T05:28:25;16.77;;;4.13;;
70228;SDS011;57617;51.988;5.854;2023-02-24T05:30:51;18.37;;;3.90;;
70228;SDS011;57617;51.988;5.854;2023-02-24T05:33:18;19.63;;;4.10;;
70228;SDS011;57617;51.988;5.854;2023-02-24T05:35:45;12.13;;;3.80;;
70228;SDS011;57617;51.988;5.854;2023-02-24T05:38:12;13.10;;;3.90;;
70228;SDS011;57617;51.988;5.854;2023-02-24T05:40:38;22.20;;;4.13;;
70228;SDS011;57617;51.988;5.854;2023-02-24T05:43:10;22.33;;;3.73;;
70228;SDS011;57617;51.988;5.854;2023-02-24T05:45:39;18.47;;;3.50;;
70228;SDS011;57617;51.988;5.854;2023-02-24T05:48:07;13.67;;;3.40;;
70228;SDS011;57617;51.988;5.854;2023-02-24T05:50:32;10.47;;;3.03;;
70228;SDS011;57617;51.988;5.854;2023-02-24T05:52:58;14.00;;;3.27;;
70228;SDS011;57617;51.988;5.854;2023-02-24T05:55:23;10.80;;;3.13;;
70228;SDS011;57617;51.988;5.854;2023-02-24T05:57:48;17.63;;;3.53;;
70228;SDS011;57617;51.988;5.854;2023-02-24T06:00:14;17.43;;;3.50;;
70228;SDS011;57617;51.988;5.854;2023-02-24T06:02:41;17.60;;;3.63;;
70228;SDS011;57617;51.988;5.854;2023-02-24T06:05:13;14.33;;;3.70;;
70228;SDS011;57617;51.988;5.854;2023-02-24T06:07:49;15.37;;;3.70;;
70228;SDS011;57617;51.988;5.854;2023-02-24T06:10:19;16.00;;;3.73;;
70228;SDS011;57617;51.988;5.854;2023-02-24T06:12:46;21.13;;;4.10;;
70228;SDS011;57617;51.988;5.854;2023-02-24T06:15:11;13.50;;;3.80;;
70228;SDS011;57617;51.988;5.854;2023-02-24T06:17:37;15.57;;;3.60;;
70228;SDS011;57617;51.988;5.854;2023-02-24T06:20:03;11.63;;;3.60;;
70228;SDS011;57617;51.988;5.854;2023-02-24T06:22:39;17.50;;;4.10;;
70228;SDS011;57617;51.988;5.854;2023-02-24T06:25:06;20.43;;;4.07;;
70228;SDS011;57617;51.988;5.854;2023-02-24T06:27:33;14.67;;;3.80;;
70228;SDS011;57617;51.988;5.854;2023-02-24T06:30:00;15.97;;;3.80;;
70228;SDS011;57617;51.988;5.854;2023-02-24T06:32:26;18.83;;;4.33;;
70228;SDS011;57617;51.988;5.854;2023-02-24T06:34:52;18.27;;;4.13;;
70228;SDS011;57617;51.988;5.854;2023-02-24T06:37:18;18.23;;;3.83;;
70228;SDS011;57617;51.988;5.854;2023-02-24T06:39:44;16.63;;;4.03;;
70228;SDS011;57617;51.988;5.854;2023-02-24T06:42:10;12.53;;;3.87;;
70228;SDS011;57617;51.988;5.854;2023-02-24T06:44:37;18.47;;;3.97;;
70228;SDS011;57617;51.988;5.854;2023-02-24T06:47:04;18.63;;;4.33;;
70228;SDS011;57617;51.988;5.854;2023-02-24T06:49:31;17.57;;;4.10;;
70228;SDS011;57617;51.988;5.854;2023-02-24T06:51:57;20.33;;;5.00;;
70228;SDS011;57617;51.988;5.854;2023-02-24T06:54:24;17.97;;;4.60;;
70228;SDS011;57617;51.988;5.854;2023-02-24T06:56:52;18.77;;;4.40;;
70228;SDS011;57617;51.988;5.854;2023-02-24T06:59:17;17.57;;;4.03;;
70228;SDS011;57617;51.988;5.854;2023-02-24T07:01:45;15.97;;;4.53;;
70228;SDS011;57617;51.988;5.854;2023-02-24T07:04:12;11.83;;;4.27;;
70228;SDS011;57617;51.988;5.854;2023-02-24T07:06:40;13.33;;;4.50;;
70228;SDS011;57617;51.988;5.854;2023-02-24T07:09:07;11.33;;;4.23;;
70228;SDS011;57617;51.988;5.854;2023-02-24T07:11:38;11.43;;;4.10;;
70228;SDS011;57617;51.988;5.854;2023-02-24T07:14:05;20.17;;;4.73;;
70228;SDS011;57617;51.988;5.854;2023-02-24T07:16:31;20.03;;;7.70;;
70228;SDS011;57617;51.988;5.854;2023-02-24T07:19:05;16.93;;;8.23;;
70228;SDS011;57617;51.988;5.854;2023-02-24T07:21:36;24.57;;;13.10;;
70228;SDS011;57617;51.988;5.854;2023-02-24T07:24:08;16.33;;;7.00;;
70228;SDS011;57617;51.988;5.854;2023-02-24T07:26:37;24.10;;;9.03;;
70228;SDS011;57617;51.988;5.854;2023-02-24T07:29:06;21.17;;;5.67;;
70228;SDS011;57617;51.988;5.854;2023-02-24T07:31:32;12.07;;;3.43;;
70228;SDS011;57617;51.988;5.854;2023-02-24T07:33:59;14.43;;;3.47;;
70228;SDS011;57617;51.988;5.854;2023-02-24T07:36:26;14.13;;;3.13;;
70228;SDS011;57617;51.988;5.854;2023-02-24T07:38:54;66.23;;;4.80;;
70228;SDS011;57617;51.988;5.854;2023-02-24T07:41:22;14.70;;;3.07;;
70228;SDS011;57617;51.988;5.854;2023-02-24T07:43:50;14.17;;;2.50;;
70228;SDS011;57617;51.988;5.854;2023-02-24T07:46:21;14.73;;;2.93;;
70228;SDS011;57617;51.988;5.854;2023-02-24T07:48:49;17.77;;;4.10;;
70228;SDS011;57617;51.988;5.854;2023-02-24T07:51:17;13.57;;;3.50;;
70228;SDS011;57617;51.988;5.854;2023-02-24T07:53:47;10.27;;;2.90;;
70228;SDS011;57617;51.988;5.854;2023-02-24T07:56:14;17.80;;;4.23;;
70228;SDS011;57617;51.988;5.854;2023-02-24T07:58:44;10.13;;;2.77;;
70228;SDS011;57617;51.988;5.854;2023-02-24T08:01:11;11.40;;;2.90;;
70228;SDS011;57617;51.988;5.854;2023-02-24T08:03:58;11.30;;;3.00;;
70228;SDS011;57617;51.988;5.854;2023-02-24T08:06:31;17.20;;;2.93;;
70228;SDS011;57617;51.988;5.854;2023-02-24T08:09:02;11.10;;;2.50;;
70228;SDS011;57617;51.988;5.854;2023-02-24T08:11:55;12.20;;;2.50;;
70228;SDS011;57617;51.988;5.854;2023-02-24T08:14:24;14.97;;;2.43;;
70228;SDS011;57617;51.988;5.854;2023-02-24T08:16:56;11.87;;;2.50;;
70228;SDS011;57617;51.988;5.854;2023-02-24T08:19:24;12.03;;;2.50;;
70228;SDS011;57617;51.988;5.854;2023-02-24T08:21:56;15.67;;;2.60;;
70228;SDS011;57617;51.988;5.854;2023-02-24T08:24:43;16.07;;;2.80;;
70228;SDS011;57617;51.988;5.854;2023-02-24T08:27:09;8.60;;;2.10;;
70228;SDS011;57617;51.988;5.854;2023-02-24T08:29:35;11.17;;;2.37;;
70228;SDS011;57617;51.988;5.854;2023-02-24T08:32:21;11.10;;;2.30;;
70228;SDS011;57617;51.988;5.854;2023-02-24T08:34:48;11.07;;;2.30;;
70228;SDS011;57617;51.988;5.854;2023-02-24T08:37:14;13.50;;;2.70;;
70228;SDS011;57617;51.988;5.854;2023-02-24T08:39:39;7.93;;;2.40;;
70228;SDS011;57617;51.988;5.854;2023-02-24T08:42:07;12.50;;;2.03;;
70228;SDS011;57617;51.988;5.854;2023-02-24T08:44:33;13.60;;;2.10;;
70228;SDS011;57617;51.988;5.854;2023-02-24T08:47:01;11.47;;;2.30;;
70228;SDS011;57617;51.988;5.854;2023-02-24T08:49:29;15.53;;;2.40;;
70228;SDS011;57617;51.988;5.854;2023-02-24T08:51:57;8.90;;;2.10;;
70228;SDS011;57617;51.988;5.854;2023-02-24T08:54:26;11.70;;;1.93;;
70228;SDS011;57617;51.988;5.854;2023-02-24T08:56:56;12.57;;;2.33;;
70228;SDS011;57617;51.988;5.854;2023-02-24T08:59:23;11.33;;;2.60;;
70228;SDS011;57617;51.988;5.854;2023-02-24T09:01:54;12.93;;;2.57;;
70228;SDS011;57617;51.988;5.854;2023-02-24T09:04:41;15.43;;;2.50;;
70228;SDS011;57617;51.988;5.854;2023-02-24T09:07:11;15.87;;;2.63;;
70228;SDS011;57617;51.988;5.854;2023-02-24T09:09:47;10.77;;;2.53;;
70228;SDS011;57617;51.988;5.854;2023-02-24T09:12:13;12.37;;;2.50;;
70228;SDS011;57617;51.988;5.854;2023-02-24T09:14:45;16.73;;;2.87;;
70228;SDS011;57617;51.988;5.854;2023-02-24T09:17:13;15.07;;;3.27;;
70228;SDS011;57617;51.988;5.854;2023-02-24T09:19:45;11.97;;;3.70;;
70228;SDS011;57617;51.988;5.854;2023-02-24T09:22:24;15.13;;;3.27;;
70228;SDS011;57617;51.988;5.854;2023-02-24T09:25:06;16.67;;;4.33;;
70228;SDS011;57617;51.988;5.854;2023-02-24T09:30:16;18.80;;;4.00;;
70228;SDS011;57617;51.988;5.854;2023-02-24T09:32:59;14.17;;;2.80;;
70228;SDS011;57617;51.988;5.854;2023-02-24T09:35:29;18.53;;;2.80;;
70228;SDS011;57617;51.988;5.854;2023-02-24T09:37:57;13.80;;;2.47;;
70228;SDS011;57617;51.988;5.854;2023-02-24T09:40:24;15.43;;;2.67;;
70228;SDS011;57617;51.988;5.854;2023-02-24T09:43:11;16.43;;;2.50;;
70228;SDS011;57617;51.988;5.854;2023-02-24T09:45:51;14.73;;;2.77;;
70228;SDS011;57617;51.988;5.854;2023-02-24T09:48:30;12.33;;;2.40;;
70228;SDS011;57617;51.988;5.854;2023-02-24T09:51:07;15.40;;;2.97;;
70228;SDS011;57617;51.988;5.854;2023-02-24T09:53:45;18.10;;;2.50;;
70228;SDS011;57617;51.988;5.854;2023-02-24T09:58:47;13.43;;;2.63;;
70228;SDS011;57617;51.988;5.854;2023-02-24T10:06:50;13.50;;;2.60;;
70228;SDS011;57617;51.988;5.854;2023-02-24T10:17:12;16.03;;;2.83;;
70228;SDS011;57617;51.988;5.854;2023-02-24T10:19:56;13.73;;;2.90;;
70228;SDS011;57617;51.988;5.854;2023-02-24T10:25:17;11.93;;;2.93;;
70228;SDS011;57617;51.988;5.854;2023-02-24T10:27:56;12.43;;;3.25;;
70228;SDS011;57617;51.988;5.854;2023-02-24T10:30:51;18.93;;;3.60;;
70228;SDS011;57617;51.988;5.854;2023-02-24T10:33:34;17.10;;;3.63;;
70228;SDS011;57617;51.988;5.854;2023-02-24T10:36:11;16.10;;;3.47;;
70228;SDS011;57617;51.988;5.854;2023-02-24T10:38:41;10.48;;;2.97;;
70228;SDS011;57617;51.988;5.854;2023-02-24T10:41:09;16.17;;;3.40;;
70228;SDS011;57617;51.988;5.854;2023-02-24T10:43:38;17.63;;;3.90;;
70228;SDS011;57617;51.988;5.854;2023-02-24T10:48:57;18.73;;;4.57;;
70228;SDS011;57617;51.988;5.854;2023-02-24T10:51:37;17.98;;;4.70;;
70228;SDS011;57617;51.988;5.854;2023-02-24T10:54:13;25.23;;;5.13;;
70228;SDS011;57617;51.988;5.854;2023-02-24T10:56:47;20.23;;;4.97;;
70228;SDS011;57617;51.988;5.854;2023-02-24T10:59:31;17.55;;;5.25;;
70228;SDS011;57617;51.988;5.854;2023-02-24T11:02:22;18.88;;;5.07;;
70228;SDS011;57617;51.988;5.854;2023-02-24T11:04:57;14.87;;;5.93;;
70228;SDS011;57617;51.988;5.854;2023-02-24T11:07:40;19.65;;;5.13;;
70228;SDS011;57617;51.988;5.854;2023-02-24T11:10:21;16.50;;;5.27;;
70228;SDS011;57617;51.988;5.854;2023-02-24T11:12:56;17.43;;;5.73;;
70228;SDS011;57617;51.988;5.854;2023-02-24T11:15:49;19.02;;;6.55;;
70228;SDS011;57617;51.988;5.854;2023-02-24T11:18:35;17.97;;;5.40;;
70228;SDS011;57617;51.988;5.854;2023-02-24T11:21:07;27.10;;;7.13;;
70228;SDS011;57617;51.988;5.854;2023-02-24T11:23:37;20.42;;;6.20;;
70228;SDS011;57617;51.988;5.854;2023-02-24T11:26:10;17.83;;;6.55;;
70228;SDS011;57617;51.988;5.854;2023-02-24T11:37:30;18.43;;;7.17;;
70228;SDS011;57617;51.988;5.854;2023-02-24T11:40:18;21.57;;;6.80;;
70228;SDS011;57617;51.988;5.854;2023-02-24T11:48:31;25.42;;;7.15;;
70228;SDS011;57617;51.988;5.854;2023-02-24T11:53:27;19.23;;;7.53;;
70228;SDS011;57617;51.988;5.854;2023-02-24T11:58:29;19.97;;;7.33;;
70228;SDS011;57617;51.988;5.854;2023-02-24T12:01:08;17.70;;;7.50;;
70228;SDS011;57617;51.988;5.854;2023-02-24T12:03:58;24.70;;;8.52;;
70228;SDS011;57617;51.988;5.854;2023-02-24T12:06:38;27.58;;;8.25;;
70228;SDS011;57617;51.988;5.854;2023-02-24T12:09:12;24.67;;;8.18;;
70228;SDS011;57617;51.988;5.854;2023-02-24T12:11:54;20.37;;;7.67;;
70228;SDS011;57617;51.988;5.854;2023-02-24T12:14:32;19.00;;;7.90;;
70228;SDS011;57617;51.988;5.854;2023-02-24T12:17:22;22.60;;;8.65;;
70228;SDS011;57617;51.988;5.854;2023-02-24T12:19:50;20.13;;;7.20;;
70228;SDS011;57617;51.988;5.854;2023-02-24T12:22:21;17.40;;;7.37;;
70228;SDS011;57617;51.988;5.854;2023-02-24T12:24:50;23.17;;;7.97;;
70228;SDS011;57617;51.988;5.854;2023-02-24T12:27:19;21.02;;;8.00;;
70228;SDS011;57617;51.988;5.854;2023-02-24T12:30:03;22.38;;;8.90;;
70228;SDS011;57617;51.988;5.854;2023-02-24T12:41:12;17.30;;;7.97;;
70228;SDS011;57617;51.988;5.854;2023-02-24T12:46:45;19.52;;;9.23;;
70228;SDS011;57617;51.988;5.854;2023-02-24T12:49:40;29.10;;;13.05;;
70228;SDS011;57617;51.988;5.854;2023-02-24T13:00:12;25.88;;;8.45;;
70228;SDS011;57617;51.988;5.854;2023-02-24T13:06:00;22.83;;;8.80;;
70228;SDS011;57617;51.988;5.854;2023-02-24T13:08:47;18.53;;;8.40;;
70228;SDS011;57617;51.988;5.854;2023-02-24T13:14:29;22.75;;;8.68;;
70228;SDS011;57617;51.988;5.854;2023-02-24T13:19:35;26.33;;;8.15;;
70228;SDS011;57617;51.988;5.854;2023-02-24T13:24:40;20.33;;;6.93;;
70228;SDS011;57617;51.988;5.854;2023-02-24T13:29:43;24.92;;;7.63;;
70228;SDS011;57617;51.988;5.854;2023-02-24T13:32:32;24.90;;;7.00;;
70228;SDS011;57617;51.988;5.854;2023-02-24T13:35:05;27.35;;;7.00;;
70228;SDS011;57617;51.988;5.854;2023-02-24T13:37:40;22.65;;;7.32;;
70228;SDS011;57617;51.988;5.854;2023-02-24T13:45:26;23.13;;;7.18;;
70228;SDS011;57617;51.988;5.854;2023-02-24T13:54:03;24.38;;;6.00;;
70228;SDS011;57617;51.988;5.854;2023-02-24T13:56:37;25.48;;;5.75;;
70228;SDS011;57617;51.988;5.854;2023-02-24T14:02:05;25.48;;;5.95;;
70228;SDS011;57617;51.988;5.854;2023-02-24T14:04:43;50.53;;;7.78;;
70228;SDS011;57617;51.988;5.854;2023-02-24T14:07:27;29.55;;;6.32;;
70228;SDS011;57617;51.988;5.854;2023-02-24T14:10:00;28.88;;;4.38;;
70228;SDS011;57617;51.988;5.854;2023-02-24T14:12:29;18.45;;;4.47;;
70228;SDS011;57617;51.988;5.854;2023-02-24T14:14:57;24.38;;;3.65;;
70228;SDS011;57617;51.988;5.854;2023-02-24T14:17:25;20.25;;;2.80;;
70228;SDS011;57617;51.988;5.854;2023-02-24T14:19:54;15.35;;;2.60;;
70228;SDS011;57617;51.988;5.854;2023-02-24T14:22:31;13.05;;;2.17;;
70228;SDS011;57617;51.988;5.854;2023-02-24T14:25:04;14.73;;;1.73;;
70228;SDS011;57617;51.988;5.854;2023-02-24T14:27:33;10.23;;;1.67;;
70228;SDS011;57617;51.988;5.854;2023-02-24T14:29:58;18.08;;;1.80;;
70228;SDS011;57617;51.988;5.854;2023-02-24T14:32:24;16.48;;;1.55;;
70228;SDS011;57617;51.988;5.854;2023-02-24T14:34:51;10.45;;;1.50;;
70228;SDS011;57617;51.988;5.854;2023-02-24T14:37:20;12.75;;;1.63;;
70228;SDS011;57617;51.988;5.854;2023-02-24T14:39:49;14.73;;;1.83;;
70228;SDS011;57617;51.988;5.854;2023-02-24T14:42:19;11.02;;;1.35;;
70228;SDS011;57617;51.988;5.854;2023-02-24T14:44:49;14.82;;;1.55;;
70228;SDS011;57617;51.988;5.854;2023-02-24T14:47:17;14.85;;;1.40;;
70228;SDS011;57617;51.988;5.854;2023-02-24T14:49:54;12.32;;;1.50;;
70228;SDS011;57617;51.988;5.854;2023-02-24T14:52:33;8.20;;;1.27;;
70228;SDS011;57617;51.988;5.854;2023-02-24T14:57:33;12.32;;;1.30;;
70228;SDS011;57617;51.988;5.854;2023-02-24T15:00:05;17.70;;;2.03;;
70228;SDS011;57617;51.988;5.854;2023-02-24T15:02:42;9.30;;;1.40;;
70228;SDS011;57617;51.988;5.854;2023-02-24T15:05:12;14.00;;;1.63;;
70228;SDS011;57617;51.988;5.854;2023-02-24T15:07:38;19.48;;;1.83;;
70228;SDS011;57617;51.988;5.854;2023-02-24T15:10:15;18.67;;;1.77;;
70228;SDS011;57617;51.988;5.854;2023-02-24T15:12:45;18.35;;;1.70;;
70228;SDS011;57617;51.988;5.854;2023-02-24T15:15:21;12.77;;;1.70;;
70228;SDS011;57617;51.988;5.854;2023-02-24T15:17:55;7.45;;;1.27;;
70228;SDS011;57617;51.988;5.854;2023-02-24T15:20:28;19.95;;;2.30;;
70228;SDS011;57617;51.988;5.854;2023-02-24T15:22:58;13.43;;;1.45;;
70228;SDS011;57617;51.988;5.854;2023-02-24T15:25:26;14.40;;;1.60;;
70228;SDS011;57617;51.988;5.854;2023-02-24T15:27:54;15.18;;;1.92;;
70228;SDS011;57617;51.988;5.854;2023-02-24T15:36:00;19.90;;;4.70;;
70228;SDS011;57617;51.988;5.854;2023-02-24T15:38:32;14.53;;;3.00;;
70228;SDS011;57617;51.988;5.854;2023-02-24T15:41:00;22.55;;;3.38;;
70228;SDS011;57617;51.988;5.854;2023-02-24T15:45:56;7.72;;;1.20;;
70228;SDS011;57617;51.988;5.854;2023-02-24T15:48:22;11.73;;;1.52;;
70228;SDS011;57617;51.988;5.854;2023-02-24T15:50:50;10.85;;;1.35;;
70228;SDS011;57617;51.988;5.854;2023-02-24T15:53:17;8.52;;;1.02;;
70228;SDS011;57617;51.988;5.854;2023-02-24T15:55:42;5.35;;;0.70;;
70228;SDS011;57617;51.988;5.854;2023-02-24T15:58:15;7.40;;;0.73;;
70228;SDS011;57617;51.988;5.854;2023-02-24T16:00:43;11.85;;;0.90;;
70228;SDS011;57617;51.988;5.854;2023-02-24T16:03:09;7.05;;;0.60;;
70228;SDS011;57617;51.988;5.854;2023-02-24T16:05:35;6.40;;;1.00;;
70228;SDS011;57617;51.988;5.854;2023-02-24T16:08:01;5.25;;;0.50;;
70228;SDS011;57617;51.988;5.854;2023-02-24T16:10:27;6.45;;;1.25;;
70228;SDS011;57617;51.988;5.854;2023-02-24T16:12:57;8.55;;;1.45;;
70228;SDS011;57617;51.988;5.854;2023-02-24T16:15:42;7.60;;;0.80;;
70228;SDS011;57617;51.988;5.854;2023-02-24T16:18:09;10.10;;;1.40;;
70228;SDS011;57617;51.988;5.854;2023-02-24T16:20:42;8.68;;;2.63;;
70228;SDS011;57617;51.988;5.854;2023-02-24T16:23:09;12.07;;;1.25;;
70228;SDS011;57617;51.988;5.854;2023-02-24T16:25:39;5.03;;;0.82;;
70228;SDS011;57617;51.988;5.854;2023-02-24T16:28:10;6.32;;;0.85;;
70228;SDS011;57617;51.988;5.854;2023-02-24T16:30:38;5.65;;;1.08;;
70228;SDS011;57617;51.988;5.854;2023-02-24T16:33:04;7.15;;;0.88;;
70228;SDS011;57617;51.988;5.854;2023-02-24T16:35:29;10.82;;;1.42;;
70228;SDS011;57617;51.988;5.854;2023-02-24T16:37:54;7.88;;;1.02;;
70228;SDS011;57617;51.988;5.854;2023-02-24T16:40:24;10.40;;;0.90;;
70228;SDS011;57617;51.988;5.854;2023-02-24T16:42:54;8.50;;;1.00;;
70228;SDS011;57617;51.988;5.854;2023-02-24T16:45:20;4.33;;;0.90;;
70228;SDS011;57617;51.988;5.854;2023-02-24T16:47:49;11.85;;;1.17;;
70228;SDS011;57617;51.988;5.854;2023-02-24T16:50:19;5.45;;;0.82;;
70228;SDS011;57617;51.988;5.854;2023-02-24T16:52:47;8.00;;;0.80;;
70228;SDS011;57617;51.988;5.854;2023-02-24T16:55:13;3.00;;;0.60;;
70228;SDS011;57617;51.988;5.854;2023-02-24T16:57:39;7.53;;;1.00;;
70228;SDS011;57617;51.988;5.854;2023-02-24T17:00:05;8.80;;;1.60;;
70228;SDS011;57617;51.988;5.854;2023-02-24T17:02:31;7.18;;;0.75;;
70228;SDS011;57617;51.988;5.854;2023-02-24T17:04:57;7.20;;;0.80;;